createdAt,value
2018-05-08T00:00:20.752Z,96996.03
2018-05-08T00:02:48.282Z,96995.63
2018-05-08T00:05:15.800Z,96994.54
2018-05-08T00:07:43.838Z,96994.27
2018-05-08T00:10:11.466Z,96993.41
2018-05-08T00:12:38.976Z,96995.78
2018-05-08T00:15:06.556Z,96998.20
2018-05-08T00:17:34.073Z,96994.12
2018-05-08T00:20:01.670Z,97001.69
2018-05-08T00:22:29.332Z,96994.36
2018-05-08T00:24:56.844Z,96990.48
2018-05-08T00:27:24.357Z,96990.64
2018-05-08T00:29:52.088Z,96985.05
2018-05-08T00:32:19.601Z,96977.47
2018-05-08T00:34:47.124Z,96975.37
2018-05-08T00:37:14.665Z,96978.83
2018-05-08T00:39:42.226Z,96974.16
2018-05-08T00:42:09.745Z,96978.64
2018-05-08T00:44:37.740Z,96970.76
2018-05-08T00:47:05.264Z,96976.25
2018-05-08T00:49:32.805Z,96973.28
2018-05-08T00:52:00.521Z,96970.92
2018-05-08T00:57:30.872Z,96969.91
2018-05-08T00:59:58.413Z,96971.97
2018-05-08T01:02:25.920Z,96973.09
2018-05-08T01:04:53.736Z,96975.95
2018-05-08T01:07:21.210Z,96973.84
2018-05-08T01:09:48.737Z,96970.58
2018-05-08T01:12:16.298Z,96967.72
2018-05-08T01:14:43.824Z,96971.33
2018-05-08T01:17:11.353Z,96966.45
2018-05-08T01:19:38.927Z,96969.55
2018-05-08T01:22:06.464Z,96967.80
2018-05-08T01:24:33.991Z,96971.59
2018-05-08T01:27:01.688Z,96964.38
2018-05-08T01:29:29.196Z,96964.20
2018-05-08T01:31:56.726Z,96965.70
2018-05-08T01:34:24.574Z,96964.95
2018-05-08T01:36:52.105Z,96956.69
2018-05-08T01:39:19.636Z,96960.29
2018-05-08T01:41:47.376Z,96956.89
2018-05-08T01:44:14.906Z,96954.08
2018-05-08T01:46:42.437Z,96956.10
2018-05-08T01:49:10.237Z,96959.64
2018-05-08T01:51:37.778Z,96959.86
2018-05-08T01:54:05.302Z,96957.45
2018-05-08T01:56:33.008Z,96955.80
2018-05-08T01:59:00.544Z,96955.70
2018-05-08T02:01:28.080Z,96952.06
2018-05-08T02:03:55.778Z,96946.08
2018-05-08T02:06:23.293Z,96947.39
2018-05-08T02:08:50.804Z,96950.94
2018-05-08T02:11:18.360Z,96950.77
2018-05-08T02:13:46.342Z,96942.65
2018-05-08T02:16:13.872Z,96953.63
2018-05-08T02:18:41.444Z,96937.55
2018-05-08T02:21:08.967Z,96941.65
2018-05-08T02:23:36.484Z,96940.44
2018-05-08T02:26:04.048Z,96942.98
2018-05-08T02:28:31.565Z,96944.53
2018-05-08T02:30:59.093Z,96943.96
2018-05-08T02:33:26.817Z,96950.88
2018-05-08T02:35:54.345Z,96944.86
2018-05-08T02:38:21.900Z,96941.14
2018-05-08T02:40:49.792Z,96945.52
2018-05-08T02:43:17.312Z,96947.06
2018-05-08T02:45:44.845Z,96946.78
2018-05-08T02:48:12.572Z,96945.65
2018-05-08T02:50:40.096Z,96942.31
2018-05-08T02:53:07.708Z,96938.53
2018-05-08T02:55:35.511Z,96938.91
2018-05-08T02:58:03.061Z,96931.40
2018-05-08T03:00:30.589Z,96932.09
2018-05-08T03:02:58.347Z,96931.58
2018-05-08T03:05:25.869Z,96932.75
2018-05-08T03:07:53.397Z,96934.33
2018-05-08T03:10:20.956Z,96927.23
2018-05-08T03:12:48.477Z,96932.72
2018-05-08T03:15:16.005Z,96928.52
2018-05-08T03:17:43.704Z,96935.36
2018-05-08T03:20:11.216Z,96927.97
2018-05-08T03:22:38.733Z,96924.20
2018-05-08T03:25:06.687Z,96926.02
2018-05-08T03:27:34.205Z,96924.72
2018-05-08T03:30:01.788Z,96929.91
2018-05-08T03:32:29.464Z,96932.66
2018-05-08T03:34:56.980Z,96927.22
2018-05-08T03:37:24.504Z,96931.30
2018-05-08T03:39:52.065Z,96929.55
2018-05-08T03:42:19.596Z,96924.84
2018-05-08T03:44:47.113Z,96933.55
2018-05-08T03:47:14.695Z,96927.91
2018-05-08T03:49:42.224Z,96929.84
2018-05-08T03:52:09.744Z,96931.25
2018-05-08T03:54:37.293Z,96935.22
2018-05-08T03:57:04.809Z,96929.23
2018-05-08T03:59:32.321Z,96934.36
2018-05-08T04:02:11.704Z,96930.54
2018-05-08T04:04:50.924Z,96930.78
2018-05-08T04:07:30.456Z,96926.25
2018-05-08T04:09:57.968Z,96929.64
2018-05-08T04:12:25.486Z,96927.41
2018-05-08T04:14:53.212Z,96928.58
2018-05-08T04:17:20.737Z,96924.21
2018-05-08T04:19:48.272Z,96926.48
2018-05-08T04:22:16.061Z,96924.97
2018-05-08T04:24:43.517Z,96922.25
2018-05-08T04:27:11.036Z,96918.98
2018-05-08T04:29:38.584Z,96919.05
2018-05-08T04:32:06.097Z,96913.22
2018-05-08T04:34:33.624Z,96911.15
2018-05-08T04:37:01.347Z,96910.15
2018-05-08T04:39:28.869Z,96911.36
2018-05-08T04:41:56.396Z,96911.85
2018-05-08T04:44:24.145Z,96910.78
2018-05-08T04:46:51.668Z,96911.16
2018-05-08T04:49:19.196Z,96905.55
2018-05-08T04:51:46.874Z,96908.27
2018-05-08T04:54:14.394Z,96906.33
2018-05-08T04:56:41.913Z,96909.73
2018-05-08T04:59:09.673Z,96908.46
2018-05-08T05:01:37.201Z,96911.91
2018-05-08T05:04:04.721Z,96911.66
2018-05-08T05:06:32.531Z,96904.61
2018-05-08T05:09:00.059Z,96906.67
2018-05-08T05:11:27.581Z,96899.31
2018-05-08T05:13:55.347Z,96915.09
2018-05-08T05:16:22.868Z,96912.69
2018-05-08T05:18:50.392Z,96910.91
2018-05-08T05:21:17.961Z,96910.39
2018-05-08T05:23:45.501Z,96917.39
2018-05-08T05:26:13.032Z,96911.46
2018-05-08T05:28:40.796Z,96908.95
2018-05-08T05:31:08.323Z,96919.58
2018-05-08T05:33:35.855Z,96904.47
2018-05-08T05:36:03.422Z,96902.36
2018-05-08T05:38:30.960Z,96904.70
2018-05-08T05:40:58.493Z,96895.98
2018-05-08T05:43:26.060Z,96889.50
2018-05-08T05:45:53.571Z,96890.95
2018-05-08T05:48:21.092Z,96883.29
2018-05-08T05:50:48.730Z,96887.69
2018-05-08T05:53:16.390Z,96885.73
2018-05-08T05:55:43.800Z,96874.39
2018-05-08T05:58:11.374Z,96874.09
2018-05-08T06:00:38.904Z,96869.72
2018-05-08T06:03:06.425Z,96865.73
2018-05-08T06:05:34.213Z,96870.52
2018-05-08T06:08:01.728Z,96859.03
2018-05-08T06:10:29.245Z,96858.87
2018-05-08T06:12:56.813Z,96856.77
2018-05-08T06:15:24.324Z,96858.23
2018-05-08T06:17:51.840Z,96852.54
2018-05-08T06:20:19.424Z,96848.94
2018-05-08T06:22:46.925Z,96848.88
2018-05-08T06:25:14.441Z,96847.25
2018-05-08T06:27:42.132Z,96850.22
2018-05-08T06:30:09.654Z,96853.16
2018-05-08T06:32:37.173Z,96848.67
2018-05-08T06:35:04.918Z,96850.69
2018-05-08T06:37:32.437Z,96854.64
2018-05-08T06:40:00.045Z,96858.31
2018-05-08T06:42:27.687Z,96858.16
2018-05-08T06:44:55.201Z,96852.36
2018-05-08T06:47:22.726Z,96856.97
2018-05-08T06:49:50.776Z,96852.42
2018-05-08T06:52:18.305Z,96861.06
2018-05-08T06:54:45.826Z,96852.52
2018-05-08T06:57:13.373Z,96852.09
2018-05-08T06:59:40.884Z,96847.11
2018-05-08T07:02:08.393Z,96850.12
2018-05-08T07:04:35.953Z,96847.02
2018-05-08T07:07:03.533Z,96848.91
2018-05-08T07:09:31.047Z,96850.48
2018-05-08T07:11:58.598Z,96843.23
2018-05-08T07:14:26.574Z,96842.91
2018-05-08T07:16:54.090Z,96842.41
2018-05-08T07:19:22.102Z,96845.55
2018-05-08T07:21:49.613Z,96845.75
2018-05-08T07:24:17.120Z,96846.59
2018-05-08T07:26:44.776Z,96851.91
2018-05-08T07:29:12.316Z,96851.70
2018-05-08T07:31:39.839Z,96852.58
2018-05-08T07:34:07.529Z,96843.66
2018-05-08T07:36:35.041Z,96852.55
2018-05-08T07:39:02.561Z,96849.90
2018-05-08T07:41:30.253Z,96848.66
2018-05-08T07:43:57.788Z,96844.41
2018-05-08T07:46:25.300Z,96845.61
2018-05-08T07:48:53.013Z,96845.41
2018-05-08T07:51:20.532Z,96840.02
2018-05-08T07:53:48.056Z,96838.63
2018-05-08T07:56:15.609Z,96839.38
2018-05-08T07:58:43.124Z,96845.22
2018-05-08T08:01:10.648Z,96850.19
2018-05-08T08:03:38.218Z,96849.73
2018-05-08T08:06:05.733Z,96849.27
2018-05-08T08:08:33.263Z,96849.50
2018-05-08T08:11:00.970Z,96841.91
2018-05-08T08:13:28.483Z,96838.34
2018-05-08T08:15:56.005Z,96834.30
2018-05-08T08:18:23.932Z,96837.77
2018-05-08T08:20:51.453Z,96833.05
2018-05-08T08:23:18.965Z,96834.69
2018-05-08T08:25:46.605Z,96833.14
2018-05-08T08:28:14.124Z,96826.17
2018-05-08T08:30:41.646Z,96833.13
2018-05-08T08:33:09.414Z,96827.47
2018-05-08T08:35:36.934Z,96826.98
2018-05-08T08:38:04.447Z,96824.81
2018-05-08T08:40:32.171Z,96824.42
2018-05-08T08:42:59.683Z,96824.53
2018-05-08T08:45:27.196Z,96818.91
2018-05-08T08:47:54.821Z,96826.55
2018-05-08T08:50:27.876Z,96826.40
2018-05-08T08:52:55.589Z,96817.19
2018-05-08T08:55:23.113Z,96820.77
2018-05-08T08:57:51.152Z,96811.77
2018-05-08T09:00:19.101Z,96820.58
2018-05-08T09:02:46.617Z,96820.67
2018-05-08T09:05:14.137Z,96818.94
2018-05-08T09:07:42.188Z,96806.48
2018-05-08T09:10:09.723Z,96810.14
2018-05-08T09:12:37.240Z,96818.92
2018-05-08T09:15:04.808Z,96812.23
2018-05-08T09:17:32.383Z,96818.05
2018-05-08T09:19:59.900Z,96808.80
2018-05-08T09:22:27.468Z,96806.84
2018-05-08T09:24:54.983Z,96809.95
2018-05-08T09:27:22.513Z,96805.75
2018-05-08T09:29:50.230Z,96799.39
2018-05-08T09:32:17.761Z,96795.91
2018-05-08T09:34:45.276Z,96784.92
2018-05-08T09:37:13.127Z,96789.55
2018-05-08T09:39:40.650Z,96791.38
2018-05-08T09:42:08.160Z,96779.63
2018-05-08T09:44:35.718Z,96781.81
2018-05-08T09:47:03.228Z,96776.52
2018-05-08T09:49:30.739Z,96777.41
2018-05-08T09:51:58.665Z,96773.20
2018-05-08T09:54:26.180Z,96777.11
2018-05-08T09:56:53.697Z,96765.74
2018-05-08T09:59:21.448Z,96751.32
2018-05-08T10:01:49.716Z,96750.82
2018-05-08T10:04:17.228Z,96751.84
2018-05-08T10:06:44.971Z,96750.62
2018-05-08T10:09:12.425Z,96751.80
2018-05-08T10:11:39.936Z,96746.99
2018-05-08T10:14:07.480Z,96750.28
2018-05-08T10:16:35.006Z,96740.23
2018-05-08T10:19:02.533Z,96744.05
2018-05-08T10:21:30.096Z,96741.78
2018-05-08T10:23:57.601Z,96734.09
2018-05-08T10:26:25.117Z,96736.19
2018-05-08T10:28:52.880Z,96737.41
2018-05-08T10:31:20.384Z,96738.19
2018-05-08T10:33:47.901Z,96728.84
2018-05-08T10:36:15.440Z,96737.81
2018-05-08T10:38:42.954Z,96734.55
2018-05-08T10:41:10.463Z,96719.61
2018-05-08T10:43:38.432Z,96727.19
2018-05-08T10:46:05.937Z,96715.61
2018-05-08T10:48:33.449Z,96704.27
2018-05-08T10:51:01.136Z,96712.61
2018-05-08T10:53:28.653Z,96699.69
2018-05-08T10:55:56.226Z,96691.50
2018-05-08T10:58:23.992Z,96693.67
2018-05-08T11:00:51.505Z,96695.56
2018-05-08T11:03:19.016Z,96683.89
2018-05-08T11:05:46.711Z,96686.55
2018-05-08T11:08:14.316Z,96686.20
2018-05-08T11:10:41.834Z,96671.09
2018-05-08T11:13:09.388Z,96680.36
2018-05-08T11:15:36.898Z,96673.91
2018-05-08T11:18:04.489Z,96671.64
2018-05-08T11:20:32.232Z,96666.62
2018-05-08T11:22:59.739Z,96657.38
2018-05-08T11:25:27.254Z,96666.56
2018-05-08T11:27:54.804Z,96667.87
2018-05-08T11:30:22.325Z,96654.70
2018-05-08T11:32:49.834Z,96648.48
2018-05-08T11:35:17.494Z,96648.67
2018-05-08T11:37:45.004Z,96640.33
2018-05-08T11:40:12.516Z,96646.13
2018-05-08T11:42:40.271Z,96635.27
2018-05-08T11:45:07.777Z,96636.20
2018-05-08T11:47:35.292Z,96626.66
2018-05-08T11:50:03.141Z,96627.07
2018-05-08T11:52:30.588Z,96627.98
2018-05-08T11:54:58.097Z,96629.35
2018-05-08T11:57:25.654Z,96630.06
2018-05-08T11:59:53.165Z,96622.66
2018-05-08T12:02:20.668Z,96624.09
2018-05-08T12:04:48.313Z,96618.13
2018-05-08T12:07:15.823Z,96616.20
2018-05-08T12:09:43.333Z,96619.14
2018-05-08T12:12:11.164Z,96613.72
2018-05-08T12:14:38.758Z,96605.00
2018-05-08T12:17:06.209Z,96611.27
2018-05-08T12:19:33.865Z,96603.58
2018-05-08T12:22:01.374Z,96603.52
2018-05-08T12:24:28.883Z,96600.33
2018-05-08T12:26:56.444Z,96604.59
2018-05-08T12:29:23.953Z,96596.14
2018-05-08T12:31:51.468Z,96590.31
2018-05-08T12:34:19.109Z,96592.52
2018-05-08T12:36:46.617Z,96591.59
2018-05-08T12:39:14.129Z,96596.20
2018-05-08T12:41:41.700Z,96592.66
2018-05-08T12:44:09.232Z,96597.95
2018-05-08T12:46:36.762Z,96593.95
2018-05-08T12:49:04.473Z,96590.12
2018-05-08T12:51:32.000Z,96581.30
2018-05-08T12:53:59.515Z,96581.75
2018-05-08T12:56:27.268Z,96574.95
2018-05-08T12:58:54.818Z,96575.34
2018-05-08T13:01:22.316Z,96565.48
2018-05-08T13:03:50.069Z,96559.55
2018-05-08T13:06:18.029Z,96563.95
2018-05-08T13:08:45.540Z,96562.89
2018-05-08T13:11:13.223Z,96569.86
2018-05-08T13:13:40.728Z,96563.50
2018-05-08T13:16:08.244Z,96562.12
2018-05-08T13:18:36.105Z,96563.23
2018-05-08T13:21:03.614Z,96558.97
2018-05-08T13:23:31.131Z,96556.03
2018-05-08T13:25:58.703Z,96553.27
2018-05-08T13:28:26.226Z,96555.84
2018-05-08T13:30:53.748Z,96548.09
2018-05-08T13:33:21.444Z,96543.98
2018-05-08T13:35:48.956Z,96541.80
2018-05-08T13:38:16.606Z,96541.91
2018-05-08T13:40:44.185Z,96544.58
2018-05-08T13:43:11.713Z,96543.50
2018-05-08T13:45:39.222Z,96541.25
2018-05-08T13:48:06.922Z,96537.62
2018-05-08T13:50:34.384Z,96533.60
2018-05-08T13:53:01.901Z,96522.16
2018-05-08T13:55:29.560Z,96525.60
2018-05-08T13:57:57.078Z,96523.14
2018-05-08T14:00:24.593Z,96524.02
2018-05-08T14:02:52.284Z,96516.29
2018-05-08T14:05:19.799Z,96518.39
2018-05-08T14:07:47.309Z,96511.55
2018-05-08T14:10:15.291Z,96508.33
2018-05-08T14:12:42.844Z,96509.37
2018-05-08T14:15:10.426Z,96508.37
2018-05-08T14:17:37.968Z,96506.14
2018-05-08T14:20:05.497Z,96504.05
2018-05-08T14:22:33.045Z,96499.88
2018-05-08T14:25:01.199Z,96505.08
2018-05-08T14:27:28.666Z,96487.59
2018-05-08T14:29:56.186Z,96500.00
2018-05-08T14:32:24.001Z,96491.81
2018-05-08T14:34:55.345Z,96494.09
2018-05-08T14:37:24.075Z,96493.02
2018-05-08T14:39:51.837Z,96488.45
2018-05-08T14:42:19.349Z,96479.64
2018-05-08T14:44:47.972Z,96482.92
2018-05-08T14:47:15.746Z,96482.55
2018-05-08T14:49:43.604Z,96477.34
2018-05-08T14:52:11.276Z,96478.96
2018-05-08T14:54:38.787Z,96479.81
2018-05-08T14:57:06.716Z,96474.61
2018-05-08T14:59:34.436Z,96472.34
2018-05-08T15:02:02.104Z,96473.52
2018-05-08T15:04:29.724Z,96471.92
2018-05-08T15:06:57.759Z,96462.06
2018-05-08T15:09:25.361Z,96459.77
2018-05-08T15:11:52.958Z,96453.73
2018-05-08T15:14:21.953Z,96455.30
2018-05-08T15:16:49.464Z,96453.66
2018-05-08T15:19:17.060Z,96459.67
2018-05-08T15:21:45.854Z,96454.73
2018-05-08T15:24:13.529Z,96453.77
2018-05-08T15:26:41.201Z,96451.80
2018-05-08T15:29:09.109Z,96454.99
2018-05-08T15:31:36.957Z,96455.09
2018-05-08T15:34:05.826Z,96456.55
2018-05-08T15:36:34.306Z,96452.00
2018-05-08T15:39:01.849Z,96447.94
2018-05-08T15:41:29.426Z,96449.34
2018-05-08T15:43:57.360Z,96447.03
2018-05-08T15:46:24.888Z,96446.52
2018-05-08T15:48:52.407Z,96441.34
2018-05-08T15:51:19.960Z,96437.88
2018-05-08T15:53:47.484Z,96438.33
2018-05-08T15:56:15.092Z,96434.01
2018-05-08T15:58:43.135Z,96436.30
2018-05-08T16:01:10.737Z,96433.61
2018-05-08T16:03:38.362Z,96428.97
2018-05-08T16:06:05.924Z,96424.91
2018-05-08T16:08:34.432Z,96423.03
2018-05-08T16:11:01.966Z,96416.58
2018-05-08T16:13:29.831Z,96421.21
2018-05-08T16:15:57.345Z,96417.65
2018-05-08T16:18:24.859Z,96417.47
2018-05-08T16:20:52.698Z,96414.50
2018-05-08T16:23:20.229Z,96415.42
2018-05-08T16:25:47.745Z,96411.94
2018-05-08T16:28:15.493Z,96411.28
2018-05-08T16:30:43.016Z,96418.37
2018-05-08T16:33:10.525Z,96412.69
2018-05-08T16:35:38.324Z,96414.32
2018-05-08T16:38:05.846Z,96416.58
2018-05-08T16:40:33.364Z,96411.84
2018-05-08T16:43:00.923Z,96418.28
2018-05-08T16:45:28.443Z,96413.66
2018-05-08T16:47:55.976Z,96417.23
2018-05-08T16:50:23.730Z,96411.21
2018-05-08T16:52:51.244Z,96412.15
2018-05-08T16:55:18.868Z,96410.41
2018-05-08T16:57:46.609Z,96404.80
2018-05-08T17:00:14.124Z,96412.76
2018-05-08T17:02:41.645Z,96407.06
2018-05-08T17:05:09.492Z,96406.16
2018-05-08T17:07:37.138Z,96404.52
2018-05-08T17:10:04.674Z,96402.56
2018-05-08T17:12:32.305Z,96399.42
2018-05-08T17:14:59.855Z,96401.70
2018-05-08T17:17:27.378Z,96409.44
2018-05-08T17:19:55.086Z,96412.09
2018-05-08T17:22:23.677Z,96411.98
2018-05-08T17:24:51.213Z,96417.44
2018-05-08T17:27:18.973Z,96414.48
2018-05-08T17:29:46.507Z,96411.37
2018-05-08T17:32:14.049Z,96410.79
2018-05-08T17:34:42.276Z,96411.26
2018-05-08T17:37:10.032Z,96412.61
2018-05-08T17:39:37.785Z,96412.38
2018-05-08T17:42:06.148Z,96407.92
2018-05-08T17:44:33.844Z,96409.69
2018-05-08T17:47:02.017Z,96412.11
2018-05-08T17:49:30.090Z,96407.00
2018-05-08T17:51:58.244Z,96406.75
2018-05-08T17:54:26.029Z,96409.34
2018-05-08T17:56:53.952Z,96405.53
2018-05-08T17:59:21.967Z,96407.22
2018-05-08T18:01:50.140Z,96413.98
2018-05-08T18:04:18.325Z,96413.00
2018-05-08T18:06:45.977Z,96414.62
2018-05-08T18:09:13.813Z,96409.70
2018-05-08T18:11:41.477Z,96414.62
2018-05-08T18:14:09.269Z,96415.94
2018-05-08T18:16:37.950Z,96410.14
2018-05-08T18:19:06.126Z,96410.05
2018-05-08T18:21:33.994Z,96412.13
2018-05-08T18:24:01.754Z,96411.66
2018-05-08T18:26:29.727Z,96416.23
2018-05-08T18:28:57.597Z,96416.94
2018-05-08T18:31:25.332Z,96408.02
2018-05-08T18:33:53.122Z,96412.61
2018-05-08T18:36:20.988Z,96420.20
2018-05-08T18:38:48.856Z,96416.87
2018-05-08T18:41:17.032Z,96418.64
2018-05-08T18:43:44.897Z,96421.64
2018-05-08T18:46:12.723Z,96415.60
2018-05-08T18:48:40.790Z,96418.09
2018-05-08T18:51:08.657Z,96427.20
2018-05-08T18:53:36.566Z,96425.66
2018-05-08T18:56:04.692Z,96421.69
2018-05-08T18:58:32.635Z,96420.00
2018-05-08T19:01:00.724Z,96423.97
2018-05-08T19:03:29.087Z,96417.13
2018-05-08T19:05:57.331Z,96424.87
2018-05-08T19:08:25.097Z,96419.27
2018-05-08T19:11:00.029Z,96426.28
2018-05-08T19:13:27.896Z,96432.67
2018-05-08T19:16:01.605Z,96440.72
2018-05-08T19:18:35.974Z,96441.52
2018-05-08T19:21:03.837Z,96441.86
2018-05-08T19:23:31.856Z,96443.19
2018-05-08T19:25:59.722Z,96448.96
2018-05-08T19:28:33.689Z,96450.97
2018-05-08T19:31:01.434Z,96445.82
2018-05-08T19:33:29.470Z,96447.48
2018-05-08T19:39:06.307Z,96449.42
2018-05-08T19:41:34.434Z,96446.27
2018-05-08T19:44:03.073Z,96448.84
2018-05-08T19:46:30.907Z,96454.97
2018-05-08T19:48:58.929Z,96452.96
2018-05-08T19:51:27.335Z,96453.80
2018-05-08T19:53:55.225Z,96458.81
2018-05-08T19:56:23.585Z,96460.75
2018-05-08T19:58:51.402Z,96454.48
2018-05-08T20:01:19.314Z,96459.74
2018-05-08T20:03:47.589Z,96462.84
2018-05-08T20:06:15.433Z,96462.59
2018-05-08T20:08:43.896Z,96460.25
2018-05-08T20:11:14.018Z,96463.27
2018-05-08T20:13:42.127Z,96462.84
2018-05-08T20:16:09.973Z,96462.88
2018-05-08T20:18:38.477Z,96460.99
2018-05-08T20:21:07.308Z,96467.75
2018-05-08T20:23:35.201Z,96463.42
2018-05-08T20:26:04.092Z,96466.63
2018-05-08T20:28:31.989Z,96469.48
2018-05-08T20:31:01.188Z,96465.48
2018-05-08T20:33:29.420Z,96466.88
2018-05-08T20:35:57.229Z,96459.02
2018-05-08T20:38:25.298Z,96462.91
2018-05-08T20:40:53.473Z,96460.14
2018-05-08T20:43:21.237Z,96462.05
2018-05-08T20:45:49.103Z,96458.81
2018-05-08T20:48:17.789Z,96460.06
2018-05-08T20:50:45.758Z,96456.19
2018-05-08T20:53:13.727Z,96459.73
2018-05-08T20:55:41.924Z,96461.57
2018-05-08T20:58:10.793Z,96448.10
2018-05-08T21:00:38.664Z,96456.25
2018-05-08T21:03:06.732Z,96455.30
2018-05-08T21:05:34.596Z,96456.17
2018-05-08T21:08:02.668Z,96457.98
2018-05-08T21:10:31.382Z,96461.05
2018-05-08T21:12:59.323Z,96466.33
2018-05-08T21:15:27.393Z,96457.13
2018-05-08T21:17:55.723Z,96459.48
2018-05-08T21:20:23.647Z,96461.88
2018-05-08T21:22:51.374Z,96462.20
2018-05-08T21:25:19.517Z,96451.38
2018-05-08T21:27:52.830Z,96461.50
2018-05-08T21:30:26.276Z,96458.41
2018-05-08T21:32:53.832Z,96462.80
2018-05-08T21:35:21.387Z,96458.25
2018-05-08T21:37:49.354Z,96462.09
2018-05-08T21:40:16.910Z,96458.58
2018-05-08T21:42:44.576Z,96451.84
2018-05-08T21:45:13.173Z,96454.32
2018-05-08T21:47:40.820Z,96458.91
2018-05-08T21:50:08.338Z,96459.78
2018-05-08T21:52:36.124Z,96460.50
2018-05-08T21:55:03.695Z,96451.77
2018-05-08T21:57:31.213Z,96456.41
2018-05-08T21:59:58.938Z,96462.41
2018-05-08T22:02:26.465Z,96458.98
2018-05-08T22:04:54.667Z,96461.96
2018-05-08T22:07:22.725Z,96460.31
2018-05-08T22:09:50.236Z,96463.67
2018-05-08T22:12:17.772Z,96464.63
2018-05-08T22:14:45.488Z,96460.87
2018-05-08T22:17:12.996Z,96462.27
2018-05-08T22:19:40.517Z,96461.34
2018-05-08T22:22:08.383Z,96462.63
2018-05-08T22:24:35.889Z,96460.83
2018-05-08T22:27:03.412Z,96459.30
2018-05-08T22:29:31.582Z,96455.57
2018-05-08T22:31:59.103Z,96456.08
2018-05-08T22:34:26.613Z,96455.95
2018-05-08T22:36:54.360Z,96456.05
2018-05-08T22:39:21.865Z,96449.02
2018-05-08T22:41:49.409Z,96448.02
2018-05-08T22:44:17.425Z,96457.32
2018-05-08T22:46:44.937Z,96454.02
2018-05-08T22:49:12.455Z,96452.88
2018-05-08T22:51:40.208Z,96453.77
2018-05-08T22:54:07.729Z,96453.49
2018-05-08T22:56:35.253Z,96478.39
2018-05-08T22:59:02.988Z,96474.34
2018-05-08T23:01:30.500Z,96469.34
2018-05-08T23:03:58.020Z,96460.89
2018-05-08T23:06:25.872Z,96464.78
2018-05-08T23:08:53.473Z,96459.88
2018-05-08T23:11:20.932Z,96464.62
2018-05-08T23:13:48.648Z,96456.63
2018-05-08T23:16:16.169Z,96459.27
2018-05-08T23:18:43.680Z,96464.50
2018-05-08T23:21:11.438Z,96459.77
2018-05-08T23:23:39.056Z,96462.41
2018-05-08T23:26:06.575Z,96463.11
2018-05-08T23:28:34.315Z,96461.20
2018-05-08T23:31:01.828Z,96456.02
2018-05-08T23:33:29.344Z,96461.87
2018-05-08T23:35:56.965Z,96461.31
2018-05-08T23:38:24.477Z,96454.92
2018-05-08T23:40:51.988Z,96455.93
2018-05-08T23:43:19.546Z,96448.03
2018-05-08T23:45:47.058Z,96439.72
2018-05-08T23:48:14.572Z,96440.72
2018-05-08T23:50:42.245Z,96444.50
2018-05-08T23:53:09.753Z,96441.95
2018-05-08T23:55:38.212Z,96441.17
2018-05-08T23:58:05.896Z,96449.67
